Terminal Aerodrome Forecast
Issued by NWS

Home | Current Version | Previous Version | Text Only | Print | Product List | Glossary On
Versions: 1 2 3 4 5 6 7 8 9 10 11 12 13 14 15 16 17 18 19 20 21 22 23 24 25 26 27 28 29 30 31 32
000
FTUS41 KALY 032331
TAFPSF
TAF
KPSF 032331Z 0400/0424 15007KT 1SM -SN SCT008 OVC012
      TEMPO 0400/0402 1/2SM SN FZFG VV008
     FM040200 16007KT 2SM -SNPL BR OVC008
     FM040400 20007KT 3SM -FZRAPL BR OVC015
      TEMPO 0404/0408 2SM -FZRAPL BR OVC008
     FM040800 21010KT 3SM BR VCSH OVC015
     FM041300 29008G14KT P6SM OVC040
     FM041600 29010G16KT P6SM OVC070=

USA.gov is the U.S. government's official web portal to all federal, state and local government web resources and services.